Time,TemperatureF,DewpointF,PressureIn,WindDirection,WindDirectionDegrees,WindSpeedMPH,WindSpeedGustMPH,Humidity,HourlyPrecipIn,Conditions,Clouds,dailyrainin,SoftwareType,DateUTC
2013-04-23 00:12:00,45.1,35.0,30.39,WNW,287,0.0,5.0,68,0.00,,,0.00,weatherlink.com 1.10,2013-04-23 04:12:00,
2013-04-23 00:27:00,44.9,35.0,30.39,SSE,165,0.0,3.0,68,0.00,,,0.00,weatherlink.com 1.10,2013-04-23 04:27:00,
2013-04-23 00:42:00,44.4,35.0,30.39,NW,307,0.0,4.0,69,0.00,,,0.00,weatherlink.com 1.10,2013-04-23 04:42:00,
2013-04-23 00:57:00,43.7,34.0,30.40,SSE,157,0.0,4.0,68,0.00,,,0.00,weatherlink.com 1.10,2013-04-23 04:57:00,
2013-04-23 01:12:00,43.0,33.0,30.39,SSE,158,2.0,2.0,69,0.00,,,0.00,weatherlink.com 1.10,2013-04-23 05:12:00,
2013-04-23 01:27:00,42.8,32.0,30.39,SSW,210,0.0,3.0,67,0.00,,,0.00,weatherlink.com 1.10,2013-04-23 05:27:00,
2013-04-23 01:42:00,42.3,33.0,30.39,SSE,165,1.0,4.0,69,0.00,,,0.00,weatherlink.com 1.10,2013-04-23 05:42:00,
2013-04-23 01:57:00,42.2,32.0,30.39,SSE,167,1.0,3.0,67,0.00,,,0.00,weatherlink.com 1.10,2013-04-23 05:57:00,
2013-04-23 02:12:00,41.6,32.0,30.39,SSE,162,1.0,3.0,68,0.00,,,0.00,weatherlink.com 1.10,2013-04-23 06:12:00,
2013-04-23 02:27:00,41.3,31.0,30.39,SSE,156,3.0,4.0,66,0.00,,,0.00,weatherlink.com 1.10,2013-04-23 06:27:00,
2013-04-23 02:42:00,41.2,31.0,30.38,SSE,155,0.0,4.0,66,0.00,,,0.00,weatherlink.com 1.10,2013-04-23 06:42:00,
2013-04-23 02:57:00,41.2,30.0,30.38,SSW,204,0.0,5.0,64,0.00,,,0.00,weatherlink.com 1.10,2013-04-23 06:57:00,
2013-04-23 03:12:00,41.4,30.0,30.38,SSE,163,3.0,3.0,64,0.00,,,0.00,weatherlink.com 1.10,2013-04-23 07:12:00,
2013-04-23 03:27:00,40.9,29.0,30.38,SSE,158,2.0,3.0,64,0.00,,,0.00,weatherlink.com 1.10,2013-04-23 07:27:00,
2013-04-23 03:42:00,40.8,29.0,30.37,SSE,166,2.0,3.0,63,0.00,,,0.00,weatherlink.com 1.10,2013-04-23 07:42:00,
2013-04-23 03:57:00,40.6,28.0,30.37,SSE,155,3.0,3.0,60,0.00,,,0.00,weatherlink.com 1.10,2013-04-23 07:57:00,
2013-04-23 04:12:00,40.4,29.0,30.36,SSE,160,3.0,3.0,63,0.00,,,0.00,weatherlink.com 1.10,2013-04-23 08:12:00,
2013-04-23 04:27:00,40.7,28.0,30.36,SSE,163,2.0,3.0,62,0.00,,,0.00,weatherlink.com 1.10,2013-04-23 08:27:00,
2013-04-23 04:42:00,40.5,28.0,30.36,SSE,159,2.0,3.0,62,0.00,,,0.00,weatherlink.com 1.10,2013-04-23 08:42:00,
2013-04-23 04:57:00,40.5,29.0,30.36,SSE,152,2.0,2.0,63,0.00,,,0.00,weatherlink.com 1.10,2013-04-23 08:57:00,
2013-04-23 05:12:00,40.5,29.0,30.37,SSE,165,2.0,3.0,63,0.00,,,0.00,weatherlink.com 1.10,2013-04-23 09:12:00,
2013-04-23 05:27:00,40.2,28.0,30.36,SSE,165,1.0,2.0,61,0.00,,,0.00,weatherlink.com 1.10,2013-04-23 09:27:00,
2013-04-23 05:42:00,40.1,27.0,30.36,SSE,165,1.0,2.0,61,0.00,,,0.00,weatherlink.com 1.10,2013-04-23 09:42:00,
2013-04-23 05:57:00,39.9,27.0,30.36,SSE,165,1.0,2.0,61,0.00,,,0.00,weatherlink.com 1.10,2013-04-23 09:57:00,
2013-04-23 06:13:00,39.6,27.0,30.36,SSE,165,2.0,2.0,62,0.00,,,0.00,weatherlink.com 1.10,2013-04-23 10:13:00,
2013-04-23 06:28:00,39.8,28.0,30.36,SSE,165,2.0,2.0,63,0.00,,,0.00,weatherlink.com 1.10,2013-04-23 10:28:00,
2013-04-23 06:43:00,39.8,28.0,30.36,SSE,165,1.0,2.0,63,0.00,,,0.00,weatherlink.com 1.10,2013-04-23 10:43:00,
2013-04-23 06:58:00,39.8,28.0,30.36,SSE,165,0.0,2.0,64,0.00,,,0.00,weatherlink.com 1.10,2013-04-23 10:58:00,
2013-04-23 07:13:00,39.7,27.0,30.35,SSE,165,0.0,2.0,62,0.00,,,0.00,weatherlink.com 1.10,2013-04-23 11:13:00,
2013-04-23 07:28:00,40.0,27.0,30.35,SSE,163,0.0,1.0,61,0.00,,,0.00,weatherlink.com 1.10,2013-04-23 11:28:00,
2013-04-23 07:43:00,40.6,29.0,30.36,SSE,163,1.0,2.0,63,0.00,,,0.00,weatherlink.com 1.10,2013-04-23 11:43:00,
2013-04-23 07:58:00,41.5,29.0,30.38,SSE,165,0.0,1.0,62,0.00,,,0.00,weatherlink.com 1.10,2013-04-23 11:58:00,
2013-04-23 08:13:00,41.8,31.0,30.39,SSE,163,0.0,0.0,66,0.00,,,0.00,weatherlink.com 1.10,2013-04-23 12:13:00,
2013-04-23 08:28:00,42.0,31.0,30.39,SSE,165,0.0,0.0,65,0.00,,,0.00,weatherlink.com 1.10,2013-04-23 12:28:00,
2013-04-23 08:43:00,43.3,31.0,30.38,NW,316,2.0,3.0,63,0.00,,,0.00,weatherlink.com 1.10,2013-04-23 12:43:00,
2013-04-23 08:58:00,43.9,32.0,30.38,SW,233,0.0,2.0,63,0.00,,,0.00,weatherlink.com 1.10,2013-04-23 12:58:00,
2013-04-23 09:13:00,46.0,31.0,30.38,NNW,328,1.0,2.0,56,0.00,,,0.00,weatherlink.com 1.10,2013-04-23 13:13:00,
2013-04-23 09:28:00,46.8,32.0,30.38,NW,322,1.0,2.0,57,0.00,,,0.00,weatherlink.com 1.10,2013-04-23 13:28:00,
2013-04-23 09:43:00,47.9,32.0,30.38,NNW,338,1.0,2.0,54,0.00,,,0.00,weatherlink.com 1.10,2013-04-23 13:43:00,
2013-04-23 09:58:00,49.8,33.0,30.37,NNE,15,1.0,2.0,52,0.00,,,0.00,weatherlink.com 1.10,2013-04-23 13:58:00,
2013-04-23 10:13:00,51.3,34.0,30.37,North,5,1.0,3.0,53,0.00,,,0.00,weatherlink.com 1.10,2013-04-23 14:13:00,
2013-04-23 10:28:00,53.0,34.0,30.38,NNE,29,4.0,4.0,48,0.00,,,0.00,weatherlink.com 1.10,2013-04-23 14:28:00,
2013-04-23 10:43:00,54.1,35.0,30.38,NNE,23,3.0,3.0,49,0.00,,,0.00,weatherlink.com 1.10,2013-04-23 14:43:00,
2013-04-23 10:58:00,55.7,36.0,30.38,North,359,2.0,3.0,48,0.00,,,0.00,weatherlink.com 1.10,2013-04-23 14:58:00,
2013-04-23 11:13:00,57.1,36.0,30.38,North,1,1.0,3.0,46,0.00,,,0.00,weatherlink.com 1.10,2013-04-23 15:13:00,
2013-04-23 11:28:00,58.4,39.0,30.37,East,88,2.0,6.0,49,0.00,,,0.00,weatherlink.com 1.10,2013-04-23 15:28:00,
2013-04-23 11:43:00,59.5,39.0,30.36,SW,219,0.0,5.0,47,0.00,,,0.00,weatherlink.com 1.10,2013-04-23 15:43:00,
2013-04-23 11:58:00,61.9,41.0,30.35,NNW,330,3.0,4.0,47,0.00,,,0.00,weatherlink.com 1.10,2013-04-23 15:58:00,
2013-04-23 12:13:00,63.3,41.0,30.34,NW,305,1.0,5.0,45,0.00,,,0.00,weatherlink.com 1.10,2013-04-23 16:13:00,
2013-04-23 12:28:00,63.8,41.0,30.34,NE,47,1.0,6.0,44,0.00,,,0.00,weatherlink.com 1.10,2013-04-23 16:28:00,
2013-04-23 12:43:00,64.6,41.0,30.32,NNE,26,4.0,6.0,43,0.00,,,0.00,weatherlink.com 1.10,2013-04-23 16:43:00,
2013-04-23 12:59:00,64.5,41.0,30.32,ENE,70,3.0,5.0,42,0.00,,,0.00,weatherlink.com 1.10,2013-04-23 16:59:00,
2013-04-23 13:14:00,65.8,41.0,30.30,NW,314,2.0,6.0,41,0.00,,,0.00,weatherlink.com 1.10,2013-04-23 17:14:00,
2013-04-23 13:29:00,66.2,42.0,30.30,NNE,20,6.0,6.0,42,0.00,,,0.00,weatherlink.com 1.10,2013-04-23 17:29:00,
2013-04-23 13:44:00,68.0,41.0,30.29,NNW,338,2.0,6.0,38,0.00,,,0.00,weatherlink.com 1.10,2013-04-23 17:44:00,
2013-04-23 13:59:00,67.4,41.0,30.28,NW,323,2.0,7.0,38,0.00,,,0.00,weatherlink.com 1.10,2013-04-23 17:59:00,
2013-04-23 14:14:00,70.0,40.0,30.27,NW,309,1.0,6.0,34,0.00,,,0.00,weatherlink.com 1.10,2013-04-23 18:14:00,
2013-04-23 14:29:00,69.9,41.0,30.26,NNW,327,2.0,7.0,35,0.00,,,0.00,weatherlink.com 1.10,2013-04-23 18:29:00,
2013-04-23 14:44:00,70.3,39.0,30.26,NNW,330,1.0,7.0,32,0.00,,,0.00,weatherlink.com 1.10,2013-04-23 18:44:00,
2013-04-23 14:59:00,70.3,39.0,30.25,WNW,294,4.0,6.0,32,0.00,,,0.00,weatherlink.com 1.10,2013-04-23 18:59:00,
2013-04-23 15:14:00,71.3,41.0,30.24,West,281,5.0,6.0,33,0.00,,,0.00,weatherlink.com 1.10,2013-04-23 19:14:00,
2013-04-23 15:29:00,71.2,41.0,30.23,NW,305,2.0,6.0,34,0.00,,,0.00,weatherlink.com 1.10,2013-04-23 19:29:00,
2013-04-23 15:44:00,71.6,40.0,30.23,WNW,297,5.0,7.0,32,0.00,,,0.00,weatherlink.com 1.10,2013-04-23 19:44:00,
2013-04-23 15:59:00,71.2,40.0,30.23,NW,315,1.0,7.0,32,0.00,,,0.00,weatherlink.com 1.10,2013-04-23 19:59:00,
2013-04-23 16:14:00,70.6,41.0,30.23,SE,145,1.0,7.0,34,0.00,,,0.00,weatherlink.com 1.10,2013-04-23 20:14:00,
2013-04-23 16:29:00,69.9,39.0,30.21,NE,36,0.0,5.0,33,0.00,,,0.00,weatherlink.com 1.10,2013-04-23 20:29:00,
2013-04-23 16:44:00,69.9,39.0,30.20,NNE,25,4.0,8.0,32,0.00,,,0.00,weatherlink.com 1.10,2013-04-23 20:44:00,
2013-04-23 16:59:00,69.5,39.0,30.21,NW,306,0.0,7.0,33,0.00,,,0.00,weatherlink.com 1.10,2013-04-23 20:59:00,
2013-04-23 17:14:00,68.9,41.0,30.21,West,278,1.0,5.0,36,0.00,,,0.00,weatherlink.com 1.10,2013-04-23 21:14:00,
2013-04-23 17:29:00,67.9,41.0,30.21,NW,318,2.0,5.0,37,0.00,,,0.00,weatherlink.com 1.10,2013-04-23 21:29:00,
2013-04-23 17:44:00,66.7,40.0,30.22,West,276,1.0,5.0,38,0.00,,,0.00,weatherlink.com 1.10,2013-04-23 21:44:00,
2013-04-23 17:59:00,66.0,40.0,30.22,NNW,327,0.0,7.0,38,0.00,,,0.00,weatherlink.com 1.10,2013-04-23 21:59:00,
2013-04-23 18:14:00,65.8,40.0,30.22,East,86,0.0,6.0,39,0.00,,,0.00,weatherlink.com 1.10,2013-04-23 22:14:00,
2013-04-23 18:29:00,65.5,40.0,30.22,SE,133,1.0,3.0,40,0.00,,,0.00,weatherlink.com 1.10,2013-04-23 22:29:00,
2013-04-23 18:44:00,65.0,41.0,30.21,WNW,297,4.0,8.0,42,0.00,,,0.00,weatherlink.com 1.10,2013-04-23 22:44:00,
2013-04-23 18:59:00,64.2,41.0,30.21,SSW,201,2.0,11.0,43,0.00,,,0.00,weatherlink.com 1.10,2013-04-23 22:59:00,
2013-04-23 19:14:00,63.0,41.0,30.22,SSW,203,0.0,8.0,45,0.00,,,0.00,weatherlink.com 1.10,2013-04-23 23:14:00,
2013-04-23 19:29:00,62.4,41.0,30.22,ESE,106,2.0,4.0,46,0.00,,,0.00,weatherlink.com 1.10,2013-04-23 23:29:00,
2013-04-23 19:44:00,62.0,42.0,30.22,West,274,2.0,3.0,48,0.00,,,0.00,weatherlink.com 1.10,2013-04-23 23:44:00,
2013-04-23 19:59:00,61.1,42.0,30.22,NW,305,0.0,3.0,50,0.00,,,0.00,weatherlink.com 1.10,2013-04-23 23:59:00,
2013-04-23 20:14:00,60.0,42.0,30.23,SE,131,0.0,4.0,52,0.00,,,0.00,weatherlink.com 1.10,2013-04-24 00:14:00,
2013-04-23 20:29:00,58.7,42.0,30.23,North,6,1.0,3.0,54,0.00,,,0.00,weatherlink.com 1.10,2013-04-24 00:29:00,
2013-04-23 20:44:00,57.6,42.0,30.24,SSE,149,0.0,2.0,56,0.00,,,0.00,weatherlink.com 1.10,2013-04-24 00:44:00,
2013-04-23 20:59:00,56.8,42.0,30.24,WNW,284,3.0,3.0,58,0.00,,,0.00,weatherlink.com 1.10,2013-04-24 00:59:00,
2013-04-23 21:14:00,56.5,42.0,30.24,West,279,1.0,6.0,59,0.00,,,0.00,weatherlink.com 1.10,2013-04-24 01:14:00,
2013-04-23 21:29:00,55.9,43.0,30.25,NW,313,0.0,1.0,62,0.00,,,0.00,weatherlink.com 1.10,2013-04-24 01:29:00,
2013-04-23 21:45:00,55.0,42.0,30.25,WNW,283,1.0,2.0,63,0.00,,,0.00,weatherlink.com 1.10,2013-04-24 01:45:00,
2013-04-23 22:00:00,54.6,43.0,30.27,SSE,160,1.0,3.0,64,0.00,,,0.00,weatherlink.com 1.10,2013-04-24 02:00:00,
2013-04-23 22:15:00,53.4,43.0,30.27,South,170,1.0,3.0,67,0.00,,,0.00,weatherlink.com 1.10,2013-04-24 02:15:00,
2013-04-23 22:30:00,53.3,43.0,30.27,South,188,2.0,3.0,67,0.00,,,0.00,weatherlink.com 1.10,2013-04-24 02:30:00,
2013-04-23 22:45:00,53.5,43.0,30.27,SSE,152,0.0,0.0,67,0.00,,,0.00,weatherlink.com 1.10,2013-04-24 02:45:00,
2013-04-23 23:30:00,52.0,44.0,30.27,SSE,160,1.0,4.0,73,0.00,,,0.00,weatherlink.com 1.10,2013-04-24 03:30:00,
2013-04-23 23:45:00,51.7,44.0,30.27,SSE,160,3.0,4.0,74,0.00,,,0.00,weatherlink.com 1.10,2013-04-24 03:45:00,